Seminole, Oklahoma
Current Conditions -  °F | °C
As of 10:15 AM on Thursday 29 Jan 2015 (Local Time) from KSNL Reporting Station
Clear Clear  
Wind Chill: 54°   Ceiling: Unl
Heat Index: 54°   Visibility: 10mi
Dew Point: 41°   Wind: 15mph
Humidity: 62%   Direction: 10°N
Pressure: 30.37"   Gusts: 22mph
Location:  35.22°N, 96.67°W
Report Text: KSNL 291615Z AUTO 01013G19KT 10SM CLR 12/05 A3037 RMK AO2
Loading
Personal Weather Stations






























Interactive Weather Map New forecast layout! Learn more

10-Day Weather Forecast

Advertisements
Track Severe Weather on mobile